Ferry Kyoto II — JI3701 — position and weather

sailwx.info

Track history (hours):
 
Tides and Currents Weather Stations Pressure Air Temp Water Temp Dewpoint Dewpoint Depression Visibility Wind Speed Wind Dir Waves Ship Positions

Ferry Kyoto II

Last reported at 2016-Sep-28 08:33 UTC. Time now 2016-Oct-01 15:30 UTC.
Position N 34°37' E 135°19'.

Length 167 m; draft 5.9 m.

Type: Ship. MMSI: 431301641.

Date/timePositionNaut miles runAvg speedWind from/ knotsBaromVisibWave heightAir tempDewpointWater temp
2016-Sep-28 08:33N 34°37' E 135°19'5 1.1
2016-Sep-28 03:25N 34°37' E 135°26'0 0.0
2016-Sep-28 02:22N 34°37' E 135°26'0 0.0
2016-Sep-28 01:28N 34°37' E 135°26'0 0.0
2016-Sep-27 23:28N 34°37' E 135°26'11 2.9
2016-Sep-27 19:33N 34°35' E 135°12'5 0.1
2016-Sep-26 08:33N 34°37' E 135°18'7 1.1
2016-Sep-26 02:32N 34°37' E 135°26'0 0.0
2016-Sep-26 01:32N 34°37' E 135°26'0 0.0
2016-Sep-26 00:32N 34°37' E 135°26'0 0.0
2016-Sep-25 21:32N 34°37' E 135°26'29 0.8
2016-Sep-24 09:33N 34°35' E 134°51'29 4.7
2016-Sep-24 03:32N 34°37' E 135°26'0 0.0
2016-Sep-24 02:26N 34°37' E 135°26'0 0.0
2016-Sep-24 01:32N 34°37' E 135°26'0 0.0
2016-Sep-24 00:32N 34°37' E 135°26'13 2.6
2016-Sep-23 19:33N 34°35' E 135°10'13 0.3
2016-Sep-22 04:33N 34°37' E 135°26'0 0.0
2016-Sep-22 03:33N 34°37' E 135°26'0 0.0
2016-Sep-22 00:27N 34°37' E 135°26'0 0.0
2016-Sep-21 23:15N 34°37' E 135°26'0 0.0
2016-Sep-21 22:33N 34°37' E 135°26'11 3.6
2016-Sep-21 19:34N 34°35' E 135°13'22 0.8
2016-Sep-20 14:32N 34°33' E 134°46'2222.2
2016-Sep-20 13:33N 34°36' E 135°12'11 3.7
2016-Sep-20 10:29N 34°37' E 135°26'6 3.1
2016-Sep-20 08:34N 34°36' E 135°19'1817.7
2016-Sep-20 07:33N 34°36' E 134°57'15 1.9
2016-Sep-19 23:33N 34°36' E 135°15'1 0.3
2016-Sep-19 19:33N 34°35' E 135°14'2120.4
2016-Sep-19 18:33N 34°33' E 134°49'5 0.2
2016-Sep-18 09:33N 34°36' E 134°54'  
Track history (hours):
 
Tides and Currents Weather Stations Pressure Air Temp Water Temp Dewpoint Dewpoint Depression Visibility Wind Speed Wind Dir Waves Ship Positions

Ferry Kyoto II

Last reported at 2016-Sep-28 08:33 UTC. Time now 2016-Oct-01 15:30 UTC.
Position N 34°37' E 135°19'.

Length 167 m; draft 5.9 m.

Type: Ship. MMSI: 431301641.

Date/timePositionNaut miles runAvg speedWind from/ knotsBaromVisibWave heightAir tempDewpointWater temp
2016-Sep-28 08:33N 34°37' E 135°19'5 1.1
2016-Sep-28 03:25N 34°37' E 135°26'0 0.0
2016-Sep-28 02:22N 34°37' E 135°26'0 0.0
2016-Sep-28 01:28N 34°37' E 135°26'0 0.0
2016-Sep-27 23:28N 34°37' E 135°26'11 2.9
2016-Sep-27 19:33N 34°35' E 135°12'5 0.1
2016-Sep-26 08:33N 34°37' E 135°18'7 1.1
2016-Sep-26 02:32N 34°37' E 135°26'0 0.0
2016-Sep-26 01:32N 34°37' E 135°26'0 0.0
2016-Sep-26 00:32N 34°37' E 135°26'0 0.0
2016-Sep-25 21:32N 34°37' E 135°26'29 0.8
2016-Sep-24 09:33N 34°35' E 134°51'29 4.7
2016-Sep-24 03:32N 34°37' E 135°26'0 0.0
2016-Sep-24 02:26N 34°37' E 135°26'0 0.0
2016-Sep-24 01:32N 34°37' E 135°26'0 0.0
2016-Sep-24 00:32N 34°37' E 135°26'13 2.6
2016-Sep-23 19:33N 34°35' E 135°10'13 0.3
2016-Sep-22 04:33N 34°37' E 135°26'0 0.0
2016-Sep-22 03:33N 34°37' E 135°26'0 0.0
2016-Sep-22 00:27N 34°37' E 135°26'0 0.0
2016-Sep-21 23:15N 34°37' E 135°26'0 0.0
2016-Sep-21 22:33N 34°37' E 135°26'11 3.6
2016-Sep-21 19:34N 34°35' E 135°13'22 0.8
2016-Sep-20 14:32N 34°33' E 134°46'2222.2
2016-Sep-20 13:33N 34°36' E 135°12'11 3.7
2016-Sep-20 10:29N 34°37' E 135°26'6 3.1
2016-Sep-20 08:34N 34°36' E 135°19'1817.7
2016-Sep-20 07:33N 34°36' E 134°57'15 1.9
2016-Sep-19 23:33N 34°36' E 135°15'1 0.3
2016-Sep-19 19:33N 34°35' E 135°14'2120.4
2016-Sep-19 18:33N 34°33' E 134°49'5 0.2
2016-Sep-18 09:33N 34°36' E 134°54'  

Dump ship's entire track history